createdAt,value
2018-07-26T00:02:37.716Z,26.53
2018-07-26T00:06:02.127Z,26.37
2018-07-26T00:09:26.554Z,26.25
2018-07-26T00:12:51.000Z,26.14
2018-07-26T00:16:15.118Z,26.20
2018-07-26T00:19:39.562Z,26.12
2018-07-26T00:23:03.990Z,26.08
2018-07-26T00:26:28.414Z,26.06
2018-07-26T00:29:52.906Z,25.95
2018-07-26T00:33:17.353Z,25.83
2018-07-26T00:36:41.847Z,25.73
2018-07-26T00:40:06.898Z,25.73
2018-07-26T00:43:31.316Z,25.78
2018-07-26T00:46:55.836Z,25.75
2018-07-26T00:50:20.366Z,25.45
2018-07-26T00:53:44.851Z,25.46
2018-07-26T00:57:09.317Z,25.41
2018-07-26T01:00:33.823Z,25.41
2018-07-26T01:03:58.382Z,25.35
2018-07-26T01:07:22.870Z,25.22
2018-07-26T01:10:47.394Z,24.99
2018-07-26T01:14:11.924Z,24.91
2018-07-26T01:17:36.462Z,24.92
2018-07-26T01:21:01.042Z,24.83
2018-07-26T01:24:25.611Z,24.83
2018-07-26T01:27:50.227Z,24.59
2018-07-26T01:31:14.813Z,24.69
2018-07-26T01:34:39.399Z,24.72
2018-07-26T01:38:03.979Z,24.64
2018-07-26T01:41:28.609Z,24.61
2018-07-26T01:44:53.200Z,24.55
2018-07-26T01:48:17.796Z,24.31
2018-07-26T01:51:42.355Z,24.32
2018-07-26T01:55:06.967Z,24.32
2018-07-26T01:58:31.561Z,24.12
2018-07-26T02:01:56.163Z,24.28
2018-07-26T02:05:20.682Z,24.18
2018-07-26T02:08:45.258Z,24.24
2018-07-26T02:12:09.921Z,24.01
2018-07-26T02:15:34.579Z,24.03
2018-07-26T02:18:59.113Z,24.05
2018-07-26T02:22:23.591Z,24.05
2018-07-26T02:25:48.194Z,24.10
2018-07-26T02:29:12.726Z,24.12
2018-07-26T02:32:37.207Z,23.95
2018-07-26T02:36:01.692Z,23.83
2018-07-26T02:39:26.259Z,23.96
2018-07-26T02:42:50.772Z,23.85
2018-07-26T02:46:15.283Z,23.87
2018-07-26T02:49:39.789Z,23.80
2018-07-26T02:53:04.388Z,23.84
2018-07-26T02:56:28.912Z,23.74
2018-07-26T02:59:53.424Z,23.72
2018-07-26T03:03:18.077Z,23.69
2018-07-26T03:06:42.678Z,23.75
2018-07-26T03:10:07.623Z,23.67
2018-07-26T03:13:32.187Z,23.62
2018-07-26T03:16:56.773Z,23.57
2018-07-26T03:20:21.357Z,23.67
2018-07-26T03:23:45.911Z,23.65
2018-07-26T03:27:10.389Z,23.53
2018-07-26T03:30:34.920Z,23.62
2018-07-26T03:33:59.482Z,23.48
2018-07-26T03:37:24.029Z,23.57
2018-07-26T03:40:48.708Z,23.53
2018-07-26T03:44:13.591Z,23.51
2018-07-26T03:47:38.173Z,23.50
2018-07-26T03:51:02.756Z,23.51
2018-07-26T03:54:27.259Z,23.38
2018-07-26T03:57:52.207Z,23.41
2018-07-26T04:01:16.751Z,23.44
2018-07-26T04:04:41.296Z,23.41
2018-07-26T04:08:05.950Z,23.42
2018-07-26T04:11:30.497Z,23.40
2018-07-26T04:14:55.090Z,23.47
2018-07-26T04:18:19.571Z,23.45
2018-07-26T04:21:44.099Z,23.53
2018-07-26T04:25:08.631Z,23.42
2018-07-26T04:28:33.215Z,23.46
2018-07-26T04:31:57.756Z,23.63
2018-07-26T04:35:22.242Z,23.62
2018-07-26T04:38:46.775Z,23.80
2018-07-26T04:42:11.281Z,23.86
2018-07-26T04:45:35.811Z,23.83
2018-07-26T04:49:00.385Z,23.84
2018-07-26T04:52:24.767Z,23.93
2018-07-26T04:55:49.268Z,23.98
2018-07-26T04:59:13.798Z,24.14
2018-07-26T05:02:38.263Z,24.23
2018-07-26T05:06:02.870Z,24.26
2018-07-26T05:09:27.402Z,24.30
2018-07-26T05:12:51.994Z,24.38
2018-07-26T05:16:16.430Z,24.57
2018-07-26T05:19:40.898Z,24.68
2018-07-26T05:23:05.487Z,24.63
2018-07-26T05:26:29.990Z,24.78
2018-07-26T05:29:54.512Z,24.98
2018-07-26T05:33:18.950Z,25.19
2018-07-26T05:36:43.459Z,25.25
2018-07-26T05:40:07.917Z,25.48
2018-07-26T05:43:32.379Z,25.58
2018-07-26T05:46:56.861Z,25.71
2018-07-26T05:50:21.403Z,25.83
2018-07-26T05:53:46.015Z,25.98
2018-07-26T05:57:10.603Z,26.13
2018-07-26T06:00:35.199Z,26.24
2018-07-26T06:03:59.763Z,26.34
2018-07-26T06:07:24.339Z,26.48
2018-07-26T06:10:48.954Z,26.70
2018-07-26T06:14:13.523Z,26.85
2018-07-26T06:17:38.099Z,27.10
2018-07-26T06:21:02.644Z,27.29
2018-07-26T06:24:27.280Z,27.64
2018-07-26T06:27:51.807Z,27.84
2018-07-26T06:31:16.231Z,28.03
2018-07-26T06:34:40.802Z,28.25
2018-07-26T06:38:05.303Z,28.50
2018-07-26T06:41:29.959Z,28.65
2018-07-26T06:44:54.519Z,28.81
2018-07-26T06:48:19.096Z,28.91
2018-07-26T06:51:43.561Z,29.09
2018-07-26T06:55:08.062Z,29.24
2018-07-26T06:58:32.537Z,29.44
2018-07-26T07:01:57.007Z,29.56
2018-07-26T07:05:21.512Z,29.85
2018-07-26T07:08:46.035Z,29.95
2018-07-26T07:12:10.725Z,30.18
2018-07-26T07:15:35.262Z,30.38
2018-07-26T07:18:59.698Z,30.42
2018-07-26T07:22:24.271Z,30.69
2018-07-26T07:25:48.727Z,30.88
2018-07-26T07:29:13.192Z,31.41
2018-07-26T07:32:37.708Z,31.66
2018-07-26T07:36:02.102Z,31.85
2018-07-26T07:39:26.558Z,32.01
2018-07-26T07:42:50.972Z,31.49
2018-07-26T07:46:15.441Z,31.73
2018-07-26T07:49:39.854Z,31.43
2018-07-26T07:53:04.278Z,31.35
2018-07-26T07:56:28.692Z,31.27
2018-07-26T07:59:53.240Z,31.12
2018-07-26T08:03:17.589Z,31.02
2018-07-26T08:06:42.073Z,30.98
2018-07-26T08:10:08.977Z,30.72
2018-07-26T08:13:33.417Z,30.72
2018-07-26T08:16:57.914Z,30.63
2018-07-26T08:20:22.399Z,30.63
2018-07-26T08:23:46.907Z,30.61
2018-07-26T08:27:11.483Z,30.57
2018-07-26T08:30:35.978Z,30.53
2018-07-26T08:34:00.172Z,30.72
2018-07-26T08:37:24.611Z,30.88
2018-07-26T08:40:49.037Z,31.29
2018-07-26T08:44:13.502Z,31.80
2018-07-26T08:47:37.921Z,32.22
2018-07-26T08:51:02.377Z,32.40
2018-07-26T08:54:26.839Z,32.59
2018-07-26T08:57:51.278Z,32.75
2018-07-26T09:01:15.704Z,33.24
2018-07-26T09:04:40.127Z,33.98
2018-07-26T09:08:04.657Z,34.00
2018-07-26T09:11:29.080Z,34.26
2018-07-26T09:14:54.170Z,34.40
2018-07-26T09:18:19.317Z,34.63
2018-07-26T09:21:43.771Z,34.64
2018-07-26T09:25:08.206Z,34.53
2018-07-26T09:28:32.788Z,34.96
2018-07-26T09:31:57.376Z,35.03
2018-07-26T09:35:21.907Z,35.30
2018-07-26T09:38:46.520Z,35.51
2018-07-26T09:42:11.066Z,35.66
2018-07-26T09:45:35.541Z,35.30
2018-07-26T09:49:00.070Z,35.66
2018-07-26T09:52:24.489Z,36.00
2018-07-26T09:55:49.425Z,36.19
2018-07-26T09:59:13.887Z,36.60
2018-07-26T10:02:38.322Z,36.89
2018-07-26T10:06:02.751Z,37.40
2018-07-26T10:09:27.219Z,37.61
2018-07-26T10:12:51.659Z,37.86
2018-07-26T10:16:16.100Z,37.84
2018-07-26T10:19:40.541Z,37.61
2018-07-26T10:23:05.052Z,37.49
2018-07-26T10:26:29.478Z,38.35
2018-07-26T10:29:53.913Z,38.72
2018-07-26T10:33:18.350Z,39.30
2018-07-26T10:36:42.807Z,39.65
2018-07-26T10:40:07.218Z,41.35
2018-07-26T10:43:31.703Z,42.69
2018-07-26T10:46:56.242Z,44.30
2018-07-26T10:50:20.709Z,45.80
2018-07-26T10:53:45.240Z,47.54
2018-07-26T10:57:09.906Z,48.16
2018-07-26T11:00:34.447Z,49.04
2018-07-26T11:03:59.034Z,48.48
2018-07-26T11:07:23.599Z,49.30
2018-07-26T11:10:48.187Z,49.62
2018-07-26T11:14:12.683Z,50.22
2018-07-26T11:17:37.146Z,49.70
2018-07-26T11:21:01.737Z,50.30
2018-07-26T11:24:26.354Z,49.63
2018-07-26T11:27:50.887Z,50.64
2018-07-26T11:31:15.412Z,50.66
2018-07-26T11:34:40.003Z,51.06
2018-07-26T11:38:04.532Z,51.07
2018-07-26T11:41:29.103Z,49.17
2018-07-26T11:44:53.677Z,50.90
2018-07-26T11:48:18.258Z,50.78
2018-07-26T11:51:42.860Z,52.12
2018-07-26T11:55:07.443Z,50.96
2018-07-26T11:58:31.999Z,52.11
2018-07-26T12:01:56.580Z,53.17
2018-07-26T12:05:21.214Z,53.42
2018-07-26T12:08:45.806Z,53.09
2018-07-26T12:12:11.100Z,52.94
2018-07-26T12:15:35.234Z,53.97
2018-07-26T12:18:59.734Z,55.65
2018-07-26T12:22:24.289Z,55.38
2018-07-26T12:25:48.956Z,55.23
2018-07-26T12:29:14.691Z,55.11
2018-07-26T12:32:39.470Z,55.84
2018-07-26T12:36:04.006Z,55.77
2018-07-26T12:39:34.236Z,55.49
2018-07-26T12:42:58.911Z,56.14
2018-07-26T12:46:23.410Z,52.83
2018-07-26T12:49:47.886Z,49.91
2018-07-26T12:53:12.497Z,47.72
2018-07-26T12:56:36.993Z,46.61
2018-07-26T13:00:01.536Z,46.37
2018-07-26T13:03:26.014Z,45.23
2018-07-26T13:06:50.237Z,44.68
2018-07-26T13:10:14.783Z,44.06
2018-07-26T13:13:39.407Z,44.78
2018-07-26T13:17:03.990Z,45.11
2018-07-26T13:20:28.632Z,46.15
2018-07-26T13:23:53.140Z,49.41
2018-07-26T13:27:17.739Z,51.75
2018-07-26T13:30:42.233Z,52.40
2018-07-26T13:34:07.114Z,50.78
2018-07-26T13:37:31.654Z,52.65
2018-07-26T13:40:56.185Z,51.99
2018-07-26T13:44:20.734Z,52.53
2018-07-26T13:47:45.306Z,54.76
2018-07-26T13:51:09.862Z,54.85
2018-07-26T13:54:34.392Z,54.05
2018-07-26T13:57:59.153Z,54.26
2018-07-26T14:01:23.685Z,54.05
2018-07-26T14:04:48.242Z,54.39
2018-07-26T14:08:12.781Z,53.68
2018-07-26T14:11:37.418Z,53.42
2018-07-26T14:15:01.994Z,53.48
2018-07-26T14:18:26.557Z,54.03
2018-07-26T14:21:51.189Z,53.68
2018-07-26T14:25:15.753Z,54.30
2018-07-26T14:28:40.487Z,55.75
2018-07-26T14:32:05.089Z,53.70
2018-07-26T14:35:29.685Z,53.92
2018-07-26T14:38:54.161Z,51.55
2018-07-26T14:42:18.729Z,50.68
2018-07-26T14:45:43.320Z,52.67
2018-07-26T14:49:07.915Z,53.50
2018-07-26T14:52:32.449Z,52.94
2018-07-26T14:55:57.017Z,50.03
2018-07-26T14:59:21.612Z,47.89
2018-07-26T15:02:46.156Z,46.85
2018-07-26T15:06:10.703Z,46.85
2018-07-26T15:09:35.310Z,46.46
2018-07-26T15:13:00.067Z,47.55
2018-07-26T15:16:24.600Z,47.88
2018-07-26T15:19:49.145Z,49.63
2018-07-26T15:23:13.740Z,49.69
2018-07-26T15:26:38.415Z,50.09
2018-07-26T15:30:03.006Z,51.77
2018-07-26T15:33:27.576Z,52.84
2018-07-26T15:36:52.110Z,52.00
2018-07-26T15:40:16.650Z,49.14
2018-07-26T15:43:41.152Z,47.74
2018-07-26T15:47:05.806Z,46.96
2018-07-26T15:50:30.275Z,47.31
2018-07-26T15:53:54.766Z,46.80
2018-07-26T15:57:19.335Z,46.06
2018-07-26T16:00:43.826Z,45.41
2018-07-26T16:04:08.384Z,45.90
2018-07-26T16:07:32.884Z,46.63
2018-07-26T16:10:57.520Z,45.36
2018-07-26T16:14:22.003Z,45.15
2018-07-26T16:17:46.583Z,45.27
2018-07-26T16:21:11.042Z,46.22
2018-07-26T16:24:35.502Z,48.02
2018-07-26T16:27:59.971Z,46.72
2018-07-26T16:31:24.518Z,45.06
2018-07-26T16:34:49.038Z,43.50
2018-07-26T16:38:13.629Z,42.59
2018-07-26T16:41:38.179Z,41.89
2018-07-26T16:45:02.912Z,41.64
2018-07-26T16:48:27.406Z,41.57
2018-07-26T16:51:52.004Z,41.34
2018-07-26T16:55:16.600Z,41.49
2018-07-26T16:58:41.255Z,41.48
2018-07-26T17:02:05.833Z,41.13
2018-07-26T17:05:30.346Z,40.88
2018-07-26T17:08:54.805Z,39.94
2018-07-26T17:12:19.267Z,39.56
2018-07-26T17:15:43.758Z,39.33
2018-07-26T17:19:08.414Z,38.84
2018-07-26T17:22:32.987Z,38.68
2018-07-26T17:25:57.509Z,38.84
2018-07-26T17:29:22.020Z,38.61
2018-07-26T17:32:46.583Z,38.24
2018-07-26T17:36:11.087Z,37.87
2018-07-26T17:39:35.556Z,37.38
2018-07-26T17:43:00.022Z,37.46
2018-07-26T17:46:24.499Z,37.38
2018-07-26T17:49:49.074Z,37.24
2018-07-26T17:53:13.574Z,37.03
2018-07-26T17:56:38.215Z,36.75
2018-07-26T18:00:02.904Z,36.16
2018-07-26T18:03:27.371Z,36.18
2018-07-26T18:06:51.962Z,35.95
2018-07-26T18:10:16.649Z,35.88
2018-07-26T18:13:41.130Z,36.03
2018-07-26T18:17:05.580Z,36.11
2018-07-26T18:20:30.350Z,35.73
2018-07-26T18:23:54.885Z,35.73
2018-07-26T18:27:19.453Z,35.82
2018-07-26T18:30:44.058Z,35.88
2018-07-26T18:34:08.768Z,35.54
2018-07-26T18:37:33.306Z,35.72
2018-07-26T18:40:57.937Z,35.59
2018-07-26T18:44:22.566Z,35.63
2018-07-26T18:47:47.159Z,35.47
2018-07-26T18:51:11.963Z,35.78
2018-07-26T18:54:36.766Z,35.52
2018-07-26T18:58:01.363Z,35.40
2018-07-26T19:01:26.052Z,35.10
2018-07-26T19:04:50.255Z,35.11
2018-07-26T19:08:14.930Z,34.98
2018-07-26T19:11:39.905Z,34.70
2018-07-26T19:15:05.726Z,34.48
2018-07-26T19:18:30.509Z,34.30
2018-07-26T19:21:55.654Z,34.13
2018-07-26T19:25:20.658Z,34.01
2018-07-26T19:28:45.226Z,33.89
2018-07-26T19:32:09.978Z,33.44
2018-07-26T19:35:34.960Z,33.40
2018-07-26T19:38:59.589Z,33.31
2018-07-26T19:42:24.423Z,33.05
2018-07-26T19:45:49.283Z,33.00
2018-07-26T19:49:14.267Z,32.95
2018-07-26T19:52:39.016Z,32.81
2018-07-26T19:56:04.217Z,32.82
2018-07-26T19:59:28.914Z,32.89
2018-07-26T20:02:53.542Z,32.84
2018-07-26T20:06:18.123Z,32.74
2018-07-26T20:09:42.760Z,32.64
2018-07-26T20:13:07.443Z,32.69
2018-07-26T20:16:32.857Z,32.40
2018-07-26T20:19:57.564Z,31.97
2018-07-26T20:23:22.206Z,32.11
2018-07-26T20:26:47.013Z,32.01
2018-07-26T20:30:12.205Z,31.95
2018-07-26T20:33:37.066Z,31.85
2018-07-26T20:37:01.764Z,31.99
2018-07-26T20:40:26.711Z,31.99
2018-07-26T20:43:51.354Z,31.97
2018-07-26T20:47:16.007Z,31.93
2018-07-26T20:50:40.926Z,31.92
2018-07-26T20:54:05.549Z,31.88
2018-07-26T20:57:30.106Z,31.91
2018-07-26T21:00:54.710Z,31.74
2018-07-26T21:04:19.310Z,31.81
2018-07-26T21:07:43.898Z,31.70
2018-07-26T21:11:08.528Z,31.60
2018-07-26T21:14:33.085Z,31.59
2018-07-26T21:17:57.660Z,31.39
2018-07-26T21:21:22.310Z,31.30
2018-07-26T21:24:46.855Z,31.28
2018-07-26T21:28:11.376Z,31.25
2018-07-26T21:31:35.983Z,31.29
2018-07-26T21:35:00.677Z,31.12
2018-07-26T21:38:25.222Z,31.18
2018-07-26T21:41:49.778Z,31.22
2018-07-26T21:45:14.378Z,31.16
2018-07-26T21:48:38.970Z,31.18
2018-07-26T21:52:03.569Z,31.19
2018-07-26T21:55:28.139Z,31.24
2018-07-26T21:58:52.693Z,31.25
2018-07-26T22:02:16.994Z,31.31
2018-07-26T22:05:41.522Z,31.18
2018-07-26T22:09:10.658Z,31.20
2018-07-26T22:12:35.128Z,31.12
2018-07-26T22:15:59.625Z,31.09
2018-07-26T22:19:24.094Z,31.14
2018-07-26T22:22:48.547Z,31.16
2018-07-26T22:26:12.974Z,31.06
2018-07-26T22:29:37.365Z,31.00
2018-07-26T22:33:01.800Z,31.08
2018-07-26T22:36:26.268Z,31.10
2018-07-26T22:39:50.726Z,31.00
2018-07-26T22:43:15.242Z,30.95
2018-07-26T22:46:39.764Z,30.84
2018-07-26T22:50:04.429Z,30.88
2018-07-26T22:53:29.015Z,30.87
2018-07-26T22:56:53.537Z,30.69
2018-07-26T23:00:18.088Z,30.72
2018-07-26T23:03:42.693Z,30.59
2018-07-26T23:07:07.591Z,30.48
2018-07-26T23:10:32.091Z,30.35
2018-07-26T23:13:56.691Z,30.43
2018-07-26T23:17:21.227Z,30.33
2018-07-26T23:20:45.765Z,30.28
2018-07-26T23:24:10.486Z,30.14
2018-07-26T23:27:35.383Z,29.99
2018-07-26T23:30:59.794Z,29.90
2018-07-26T23:34:24.280Z,29.91
2018-07-26T23:37:48.840Z,29.70
2018-07-26T23:41:13.394Z,29.46
2018-07-26T23:44:37.640Z,29.31
2018-07-26T23:48:02.174Z,29.26
2018-07-26T23:51:26.633Z,29.11
2018-07-26T23:54:51.238Z,28.95
2018-07-26T23:58:15.830Z,28.83
